sensor_id;sensor_type;location;lat;lon;timestamp;temperature;humidity
19522;DHT22;9905;52.126;5.596;2022-08-25T00:01:21;22.70;99.90
19522;DHT22;9905;52.126;5.596;2022-08-25T00:03:49;22.60;99.90
19522;DHT22;9905;52.126;5.596;2022-08-25T00:06:18;22.60;99.90
19522;DHT22;9905;52.126;5.596;2022-08-25T00:08:45;22.50;99.90
19522;DHT22;9905;52.126;5.596;2022-08-25T00:11:14;22.50;99.90
19522;DHT22;9905;52.126;5.596;2022-08-25T00:13:43;22.50;99.90
19522;DHT22;9905;52.126;5.596;2022-08-25T00:16:11;22.40;99.90
19522;DHT22;9905;52.126;5.596;2022-08-25T00:18:41;22.40;99.90
19522;DHT22;9905;52.126;5.596;2022-08-25T00:21:10;22.40;99.90
19522;DHT22;9905;52.126;5.596;2022-08-25T00:23:37;22.40;99.90
19522;DHT22;9905;52.126;5.596;2022-08-25T00:26:04;22.30;99.90
19522;DHT22;9905;52.126;5.596;2022-08-25T00:28:31;22.30;99.90
19522;DHT22;9905;52.126;5.596;2022-08-25T00:30:58;22.30;99.90
19522;DHT22;9905;52.126;5.596;2022-08-25T00:33:26;22.20;99.90
19522;DHT22;9905;52.126;5.596;2022-08-25T00:35:54;22.20;99.90
19522;DHT22;9905;52.126;5.596;2022-08-25T00:38:20;22.10;99.90
19522;DHT22;9905;52.126;5.596;2022-08-25T00:40:48;22.10;99.90
19522;DHT22;9905;52.126;5.596;2022-08-25T00:43:33;22.00;99.90
19522;DHT22;9905;52.126;5.596;2022-08-25T00:46:01;22.00;99.90
19522;DHT22;9905;52.126;5.596;2022-08-25T00:48:27;21.90;99.90
19522;DHT22;9905;52.126;5.596;2022-08-25T00:50:55;21.90;99.90
19522;DHT22;9905;52.126;5.596;2022-08-25T00:53:22;21.90;99.90
19522;DHT22;9905;52.126;5.596;2022-08-25T00:55:49;21.80;99.90
19522;DHT22;9905;52.126;5.596;2022-08-25T00:58:20;21.80;99.90
19522;DHT22;9905;52.126;5.596;2022-08-25T01:00:51;21.80;99.90
19522;DHT22;9905;52.126;5.596;2022-08-25T01:03:19;21.70;99.90
19522;DHT22;9905;52.126;5.596;2022-08-25T01:05:47;21.70;99.90
19522;DHT22;9905;52.126;5.596;2022-08-25T01:08:16;21.70;99.90
19522;DHT22;9905;52.126;5.596;2022-08-25T01:10:46;21.60;99.90
19522;DHT22;9905;52.126;5.596;2022-08-25T01:13:28;21.60;99.90
19522;DHT22;9905;52.126;5.596;2022-08-25T01:15:58;21.60;99.90
19522;DHT22;9905;52.126;5.596;2022-08-25T01:18:27;21.50;99.90
19522;DHT22;9905;52.126;5.596;2022-08-25T01:20:56;21.50;99.90
19522;DHT22;9905;52.126;5.596;2022-08-25T01:23:23;21.40;99.90
19522;DHT22;9905;52.126;5.596;2022-08-25T01:25:55;21.40;99.90
19522;DHT22;9905;52.126;5.596;2022-08-25T01:28:24;21.40;99.90
19522;DHT22;9905;52.126;5.596;2022-08-25T01:30:50;21.40;99.90
19522;DHT22;9905;52.126;5.596;2022-08-25T01:33:18;21.40;99.90
19522;DHT22;9905;52.126;5.596;2022-08-25T01:35:46;21.40;99.90
19522;DHT22;9905;52.126;5.596;2022-08-25T01:38:14;21.30;99.90
19522;DHT22;9905;52.126;5.596;2022-08-25T01:40:41;21.40;99.90
19522;DHT22;9905;52.126;5.596;2022-08-25T01:43:16;21.30;99.90
19522;DHT22;9905;52.126;5.596;2022-08-25T01:45:47;21.30;99.90
19522;DHT22;9905;52.126;5.596;2022-08-25T01:48:15;21.30;99.90
19522;DHT22;9905;52.126;5.596;2022-08-25T01:50:42;21.30;99.90
19522;DHT22;9905;52.126;5.596;2022-08-25T01:53:17;21.20;99.90
19522;DHT22;9905;52.126;5.596;2022-08-25T01:55:45;21.20;99.90
19522;DHT22;9905;52.126;5.596;2022-08-25T01:58:19;21.20;99.90
19522;DHT22;9905;52.126;5.596;2022-08-25T02:00:46;21.20;99.90
19522;DHT22;9905;52.126;5.596;2022-08-25T02:03:14;21.20;99.90
19522;DHT22;9905;52.126;5.596;2022-08-25T02:05:40;21.20;99.90
19522;DHT22;9905;52.126;5.596;2022-08-25T02:08:08;21.10;99.90
19522;DHT22;9905;52.126;5.596;2022-08-25T02:10:36;21.10;99.90
19522;DHT22;9905;52.126;5.596;2022-08-25T02:13:04;21.10;99.90
19522;DHT22;9905;52.126;5.596;2022-08-25T02:15:31;21.00;99.90
19522;DHT22;9905;52.126;5.596;2022-08-25T02:17:58;21.00;99.90
19522;DHT22;9905;52.126;5.596;2022-08-25T02:20:25;21.00;99.90
19522;DHT22;9905;52.126;5.596;2022-08-25T02:22:52;21.00;99.90
19522;DHT22;9905;52.126;5.596;2022-08-25T02:25:19;21.00;99.90
19522;DHT22;9905;52.126;5.596;2022-08-25T02:27:47;20.90;99.90
19522;DHT22;9905;52.126;5.596;2022-08-25T02:30:15;20.90;99.90
19522;DHT22;9905;52.126;5.596;2022-08-25T02:32:42;21.00;99.90
19522;DHT22;9905;52.126;5.596;2022-08-25T02:35:09;20.90;99.90
19522;DHT22;9905;52.126;5.596;2022-08-25T02:37:36;20.90;99.90
19522;DHT22;9905;52.126;5.596;2022-08-25T02:40:05;20.90;99.90
19522;DHT22;9905;52.126;5.596;2022-08-25T02:42:32;20.90;99.90
19522;DHT22;9905;52.126;5.596;2022-08-25T02:45:00;20.90;99.90
19522;DHT22;9905;52.126;5.596;2022-08-25T02:47:26;20.80;99.90
19522;DHT22;9905;52.126;5.596;2022-08-25T02:49:54;20.80;99.90
19522;DHT22;9905;52.126;5.596;2022-08-25T02:52:21;20.90;99.90
19522;DHT22;9905;52.126;5.596;2022-08-25T02:54:47;20.90;99.90
19522;DHT22;9905;52.126;5.596;2022-08-25T02:57:14;20.80;99.90
19522;DHT22;9905;52.126;5.596;2022-08-25T02:59:41;20.80;99.90
19522;DHT22;9905;52.126;5.596;2022-08-25T03:02:13;20.80;99.90
19522;DHT22;9905;52.126;5.596;2022-08-25T03:04:40;20.80;99.90
19522;DHT22;9905;52.126;5.596;2022-08-25T03:07:06;20.80;99.90
19522;DHT22;9905;52.126;5.596;2022-08-25T03:09:33;20.80;99.90
19522;DHT22;9905;52.126;5.596;2022-08-25T03:12:00;20.80;99.90
19522;DHT22;9905;52.126;5.596;2022-08-25T03:14:27;20.80;99.90
19522;DHT22;9905;52.126;5.596;2022-08-25T03:16:54;20.80;99.90
19522;DHT22;9905;52.126;5.596;2022-08-25T03:19:22;20.80;99.90
19522;DHT22;9905;52.126;5.596;2022-08-25T03:21:49;20.70;99.90
19522;DHT22;9905;52.126;5.596;2022-08-25T03:24:17;20.70;99.90
19522;DHT22;9905;52.126;5.596;2022-08-25T03:26:43;20.70;99.90
19522;DHT22;9905;52.126;5.596;2022-08-25T03:29:18;20.60;99.90
19522;DHT22;9905;52.126;5.596;2022-08-25T03:31:45;20.60;99.90
19522;DHT22;9905;52.126;5.596;2022-08-25T03:34:12;20.60;99.90
19522;DHT22;9905;52.126;5.596;2022-08-25T03:36:43;20.60;99.90
19522;DHT22;9905;52.126;5.596;2022-08-25T03:39:10;20.60;99.90
19522;DHT22;9905;52.126;5.596;2022-08-25T03:41:37;20.60;99.90
19522;DHT22;9905;52.126;5.596;2022-08-25T03:44:05;20.50;99.90
19522;DHT22;9905;52.126;5.596;2022-08-25T03:46:37;20.50;99.90
19522;DHT22;9905;52.126;5.596;2022-08-25T03:49:06;20.50;99.90
19522;DHT22;9905;52.126;5.596;2022-08-25T03:51:34;20.50;99.90
19522;DHT22;9905;52.126;5.596;2022-08-25T03:54:03;20.50;99.90
19522;DHT22;9905;52.126;5.596;2022-08-25T03:56:30;20.50;99.90
19522;DHT22;9905;52.126;5.596;2022-08-25T03:58:57;20.50;99.90
19522;DHT22;9905;52.126;5.596;2022-08-25T04:01:24;20.40;99.90
19522;DHT22;9905;52.126;5.596;2022-08-25T04:03:52;20.40;99.90
19522;DHT22;9905;52.126;5.596;2022-08-25T04:06:19;20.30;99.90
19522;DHT22;9905;52.126;5.596;2022-08-25T04:08:46;20.30;99.90
19522;DHT22;9905;52.126;5.596;2022-08-25T04:11:16;20.30;99.90
19522;DHT22;9905;52.126;5.596;2022-08-25T04:13:44;20.30;99.90
19522;DHT22;9905;52.126;5.596;2022-08-25T04:16:13;20.30;99.90
19522;DHT22;9905;52.126;5.596;2022-08-25T04:18:40;20.20;99.90
19522;DHT22;9905;52.126;5.596;2022-08-25T04:21:08;20.20;99.90
19522;DHT22;9905;52.126;5.596;2022-08-25T04:23:36;20.20;99.90
19522;DHT22;9905;52.126;5.596;2022-08-25T04:26:08;20.20;99.90
19522;DHT22;9905;52.126;5.596;2022-08-25T04:28:36;20.10;99.90
19522;DHT22;9905;52.126;5.596;2022-08-25T04:31:05;20.10;99.90
19522;DHT22;9905;52.126;5.596;2022-08-25T04:33:32;20.00;99.90
19522;DHT22;9905;52.126;5.596;2022-08-25T04:35:59;20.00;99.90
19522;DHT22;9905;52.126;5.596;2022-08-25T04:38:26;20.00;99.90
19522;DHT22;9905;52.126;5.596;2022-08-25T04:40:55;19.90;99.90
19522;DHT22;9905;52.126;5.596;2022-08-25T04:43:22;19.90;99.90
19522;DHT22;9905;52.126;5.596;2022-08-25T04:45:50;19.90;99.90
19522;DHT22;9905;52.126;5.596;2022-08-25T04:48:17;19.90;99.90
19522;DHT22;9905;52.126;5.596;2022-08-25T04:50:44;19.90;99.90
19522;DHT22;9905;52.126;5.596;2022-08-25T04:53:11;19.80;99.90
19522;DHT22;9905;52.126;5.596;2022-08-25T04:55:39;19.80;99.90
19522;DHT22;9905;52.126;5.596;2022-08-25T04:58:06;19.80;99.90
19522;DHT22;9905;52.126;5.596;2022-08-25T05:00:33;19.80;99.90
19522;DHT22;9905;52.126;5.596;2022-08-25T05:03:02;19.80;99.90
19522;DHT22;9905;52.126;5.596;2022-08-25T05:05:29;19.70;99.90
19522;DHT22;9905;52.126;5.596;2022-08-25T05:07:56;19.70;99.90
19522;DHT22;9905;52.126;5.596;2022-08-25T05:10:24;19.70;99.90
19522;DHT22;9905;52.126;5.596;2022-08-25T05:12:50;19.70;99.90
19522;DHT22;9905;52.126;5.596;2022-08-25T05:15:17;19.70;99.90
19522;DHT22;9905;52.126;5.596;2022-08-25T05:18:03;19.70;99.90
19522;DHT22;9905;52.126;5.596;2022-08-25T05:20:29;19.70;99.90
19522;DHT22;9905;52.126;5.596;2022-08-25T05:22:56;19.70;99.90
19522;DHT22;9905;52.126;5.596;2022-08-25T05:25:23;19.70;99.90
19522;DHT22;9905;52.126;5.596;2022-08-25T05:27:50;19.70;99.90
19522;DHT22;9905;52.126;5.596;2022-08-25T05:30:17;19.70;99.90
19522;DHT22;9905;52.126;5.596;2022-08-25T05:32:43;19.70;99.90
19522;DHT22;9905;52.126;5.596;2022-08-25T05:35:12;19.70;99.90
19522;DHT22;9905;52.126;5.596;2022-08-25T05:37:38;19.70;99.90
19522;DHT22;9905;52.126;5.596;2022-08-25T05:40:06;19.80;99.90
19522;DHT22;9905;52.126;5.596;2022-08-25T05:42:33;19.80;99.90
19522;DHT22;9905;52.126;5.596;2022-08-25T05:45:00;19.80;99.90
19522;DHT22;9905;52.126;5.596;2022-08-25T05:47:26;19.80;99.90
19522;DHT22;9905;52.126;5.596;2022-08-25T05:49:53;19.90;99.90
19522;DHT22;9905;52.126;5.596;2022-08-25T05:52:21;19.90;99.90
19522;DHT22;9905;52.126;5.596;2022-08-25T05:54:48;20.00;99.90
19522;DHT22;9905;52.126;5.596;2022-08-25T05:57:15;20.00;99.90
19522;DHT22;9905;52.126;5.596;2022-08-25T05:59:42;20.10;99.90
19522;DHT22;9905;52.126;5.596;2022-08-25T06:02:08;20.20;99.90
19522;DHT22;9905;52.126;5.596;2022-08-25T06:04:52;20.30;99.90
19522;DHT22;9905;52.126;5.596;2022-08-25T06:07:19;20.40;99.90
19522;DHT22;9905;52.126;5.596;2022-08-25T06:09:47;20.40;99.90
19522;DHT22;9905;52.126;5.596;2022-08-25T06:12:15;20.50;99.90
19522;DHT22;9905;52.126;5.596;2022-08-25T06:14:42;20.50;99.90
19522;DHT22;9905;52.126;5.596;2022-08-25T06:17:09;20.60;99.90
19522;DHT22;9905;52.126;5.596;2022-08-25T06:19:36;20.70;99.90
19522;DHT22;9905;52.126;5.596;2022-08-25T06:22:03;20.80;99.90
19522;DHT22;9905;52.126;5.596;2022-08-25T06:24:29;20.90;99.90
19522;DHT22;9905;52.126;5.596;2022-08-25T06:26:59;21.00;99.90
19522;DHT22;9905;52.126;5.596;2022-08-25T06:29:25;21.20;99.90
19522;DHT22;9905;52.126;5.596;2022-08-25T06:31:52;21.30;99.90
19522;DHT22;9905;52.126;5.596;2022-08-25T06:34:19;21.40;99.90
19522;DHT22;9905;52.126;5.596;2022-08-25T06:36:46;21.50;99.90
19522;DHT22;9905;52.126;5.596;2022-08-25T06:39:12;21.60;99.90
19522;DHT22;9905;52.126;5.596;2022-08-25T06:41:39;21.70;99.90
19522;DHT22;9905;52.126;5.596;2022-08-25T06:44:08;21.80;99.90
19522;DHT22;9905;52.126;5.596;2022-08-25T06:46:35;21.90;99.90
19522;DHT22;9905;52.126;5.596;2022-08-25T06:49:03;22.00;99.90
19522;DHT22;9905;52.126;5.596;2022-08-25T06:51:30;22.10;99.90
19522;DHT22;9905;52.126;5.596;2022-08-25T06:53:56;22.20;99.90
19522;DHT22;9905;52.126;5.596;2022-08-25T06:56:23;22.30;99.90
19522;DHT22;9905;52.126;5.596;2022-08-25T06:58:50;22.30;99.90
19522;DHT22;9905;52.126;5.596;2022-08-25T07:01:20;22.40;99.90
19522;DHT22;9905;52.126;5.596;2022-08-25T07:03:48;22.50;99.90
19522;DHT22;9905;52.126;5.596;2022-08-25T07:06:16;22.60;99.90
19522;DHT22;9905;52.126;5.596;2022-08-25T07:08:43;22.70;99.90
19522;DHT22;9905;52.126;5.596;2022-08-25T07:11:11;22.80;99.90
19522;DHT22;9905;52.126;5.596;2022-08-25T07:13:39;23.00;99.90
19522;DHT22;9905;52.126;5.596;2022-08-25T07:16:06;23.10;99.90
19522;DHT22;9905;52.126;5.596;2022-08-25T07:18:36;23.20;99.90
19522;DHT22;9905;52.126;5.596;2022-08-25T07:21:03;23.30;99.90
19522;DHT22;9905;52.126;5.596;2022-08-25T07:23:30;23.40;99.90
19522;DHT22;9905;52.126;5.596;2022-08-25T07:26:06;23.50;99.90
19522;DHT22;9905;52.126;5.596;2022-08-25T07:28:33;23.60;99.90
19522;DHT22;9905;52.126;5.596;2022-08-25T07:31:00;23.80;99.90
19522;DHT22;9905;52.126;5.596;2022-08-25T07:33:27;23.90;99.90
19522;DHT22;9905;52.126;5.596;2022-08-25T07:35:55;24.00;99.90
19522;DHT22;9905;52.126;5.596;2022-08-25T07:38:22;24.10;99.90
19522;DHT22;9905;52.126;5.596;2022-08-25T07:40:49;24.20;99.90
19522;DHT22;9905;52.126;5.596;2022-08-25T07:43:20;24.30;99.90
19522;DHT22;9905;52.126;5.596;2022-08-25T07:45:47;24.40;99.90
19522;DHT22;9905;52.126;5.596;2022-08-25T07:48:15;24.50;99.90
19522;DHT22;9905;52.126;5.596;2022-08-25T07:50:44;24.60;99.90
19522;DHT22;9905;52.126;5.596;2022-08-25T07:53:14;24.70;99.90
19522;DHT22;9905;52.126;5.596;2022-08-25T07:55:42;24.90;99.90
19522;DHT22;9905;52.126;5.596;2022-08-25T07:58:09;25.00;99.90
19522;DHT22;9905;52.126;5.596;2022-08-25T08:00:36;25.00;99.90
19522;DHT22;9905;52.126;5.596;2022-08-25T08:03:05;25.20;99.90
19522;DHT22;9905;52.126;5.596;2022-08-25T08:05:32;25.30;99.90
19522;DHT22;9905;52.126;5.596;2022-08-25T08:07:59;25.40;99.90
19522;DHT22;9905;52.126;5.596;2022-08-25T08:10:28;25.50;99.90
19522;DHT22;9905;52.126;5.596;2022-08-25T08:12:55;25.60;99.90
19522;DHT22;9905;52.126;5.596;2022-08-25T08:15:22;25.70;99.90
19522;DHT22;9905;52.126;5.596;2022-08-25T08:17:49;25.80;99.90
19522;DHT22;9905;52.126;5.596;2022-08-25T08:20:16;25.80;99.90
19522;DHT22;9905;52.126;5.596;2022-08-25T08:22:43;26.00;99.90
19522;DHT22;9905;52.126;5.596;2022-08-25T08:25:10;26.00;99.90
19522;DHT22;9905;52.126;5.596;2022-08-25T08:27:39;26.20;99.90
19522;DHT22;9905;52.126;5.596;2022-08-25T08:30:08;26.30;99.90
19522;DHT22;9905;52.126;5.596;2022-08-25T08:32:35;26.40;99.90
19522;DHT22;9905;52.126;5.596;2022-08-25T08:35:02;26.50;99.90
19522;DHT22;9905;52.126;5.596;2022-08-25T08:37:30;26.70;99.90
19522;DHT22;9905;52.126;5.596;2022-08-25T08:39:56;26.80;99.90
19522;DHT22;9905;52.126;5.596;2022-08-25T08:42:39;26.80;99.90
19522;DHT22;9905;52.126;5.596;2022-08-25T08:45:32;27.00;99.90
19522;DHT22;9905;52.126;5.596;2022-08-25T08:51:00;27.30;99.90
19522;DHT22;9905;52.126;5.596;2022-08-25T08:53:38;27.50;99.90
19522;DHT22;9905;52.126;5.596;2022-08-25T08:56:10;27.70;99.90
19522;DHT22;9905;52.126;5.596;2022-08-25T08:58:42;27.80;99.90
19522;DHT22;9905;52.126;5.596;2022-08-25T09:01:16;27.90;99.90
19522;DHT22;9905;52.126;5.596;2022-08-25T09:03:51;28.00;99.90
19522;DHT22;9905;52.126;5.596;2022-08-25T09:06:23;28.10;99.90
19522;DHT22;9905;52.126;5.596;2022-08-25T09:08:52;28.20;99.90
19522;DHT22;9905;52.126;5.596;2022-08-25T09:11:25;28.30;99.90
19522;DHT22;9905;52.126;5.596;2022-08-25T09:14:06;28.40;99.90
19522;DHT22;9905;52.126;5.596;2022-08-25T09:16:41;28.50;99.90
19522;DHT22;9905;52.126;5.596;2022-08-25T09:19:43;28.60;99.90
19522;DHT22;9905;52.126;5.596;2022-08-25T09:22:21;28.80;99.90
19522;DHT22;9905;52.126;5.596;2022-08-25T09:24:57;28.90;99.90
19522;DHT22;9905;52.126;5.596;2022-08-25T09:27:32;29.10;99.90
19522;DHT22;9905;52.126;5.596;2022-08-25T09:30:06;29.20;99.90
19522;DHT22;9905;52.126;5.596;2022-08-25T09:32:39;29.30;99.90
19522;DHT22;9905;52.126;5.596;2022-08-25T09:35:13;29.50;99.90
19522;DHT22;9905;52.126;5.596;2022-08-25T09:37:41;29.60;99.90
19522;DHT22;9905;52.126;5.596;2022-08-25T09:40:08;29.70;99.90
19522;DHT22;9905;52.126;5.596;2022-08-25T09:42:46;29.90;99.90
19522;DHT22;9905;52.126;5.596;2022-08-25T09:45:15;30.00;99.90
19522;DHT22;9905;52.126;5.596;2022-08-25T09:47:43;30.10;99.90
19522;DHT22;9905;52.126;5.596;2022-08-25T09:50:15;30.30;99.90
19522;DHT22;9905;52.126;5.596;2022-08-25T09:52:43;30.50;99.90
19522;DHT22;9905;52.126;5.596;2022-08-25T09:55:29;30.60;99.90
19522;DHT22;9905;52.126;5.596;2022-08-25T09:57:56;30.70;99.90
19522;DHT22;9905;52.126;5.596;2022-08-25T10:00:27;30.80;99.90
19522;DHT22;9905;52.126;5.596;2022-08-25T10:03:08;30.90;99.90
19522;DHT22;9905;52.126;5.596;2022-08-25T10:05:56;31.00;99.90
19522;DHT22;9905;52.126;5.596;2022-08-25T10:08:28;31.20;99.90
19522;DHT22;9905;52.126;5.596;2022-08-25T10:10:58;31.20;99.90
19522;DHT22;9905;52.126;5.596;2022-08-25T10:13:37;31.40;99.90
19522;DHT22;9905;52.126;5.596;2022-08-25T10:16:10;31.50;99.90
19522;DHT22;9905;52.126;5.596;2022-08-25T10:18:38;31.60;99.90
19522;DHT22;9905;52.126;5.596;2022-08-25T10:21:10;31.60;99.90
19522;DHT22;9905;52.126;5.596;2022-08-25T10:23:40;31.70;99.90
19522;DHT22;9905;52.126;5.596;2022-08-25T10:26:13;31.80;99.90
19522;DHT22;9905;52.126;5.596;2022-08-25T10:28:51;31.90;99.90
19522;DHT22;9905;52.126;5.596;2022-08-25T10:31:26;32.00;99.90
19522;DHT22;9905;52.126;5.596;2022-08-25T10:34:05;32.20;99.90
19522;DHT22;9905;52.126;5.596;2022-08-25T10:36:44;32.20;99.90
19522;DHT22;9905;52.126;5.596;2022-08-25T10:39:22;32.30;99.90
19522;DHT22;9905;52.126;5.596;2022-08-25T10:41:56;32.40;99.90
19522;DHT22;9905;52.126;5.596;2022-08-25T10:44:33;32.60;99.90
19522;DHT22;9905;52.126;5.596;2022-08-25T10:47:46;32.70;99.90
19522;DHT22;9905;52.126;5.596;2022-08-25T10:50:21;32.80;99.90
19522;DHT22;9905;52.126;5.596;2022-08-25T10:53:02;32.70;99.90
19522;DHT22;9905;52.126;5.596;2022-08-25T10:55:36;32.70;99.80
19522;DHT22;9905;52.126;5.596;2022-08-25T10:58:18;32.80;99.90
19522;DHT22;9905;52.126;5.596;2022-08-25T11:00:54;32.90;99.70
19522;DHT22;9905;52.126;5.596;2022-08-25T11:03:34;32.90;98.80
19522;DHT22;9905;52.126;5.596;2022-08-25T11:06:06;33.00;99.40
19522;DHT22;9905;52.126;5.596;2022-08-25T11:08:39;33.00;97.60
19522;DHT22;9905;52.126;5.596;2022-08-25T11:11:11;33.00;97.90
19522;DHT22;9905;52.126;5.596;2022-08-25T11:13:43;33.10;97.40
19522;DHT22;9905;52.126;5.596;2022-08-25T11:16:14;33.20;98.10
19522;DHT22;9905;52.126;5.596;2022-08-25T11:18:49;33.10;96.90
19522;DHT22;9905;52.126;5.596;2022-08-25T11:21:20;32.90;95.80
19522;DHT22;9905;52.126;5.596;2022-08-25T11:23:52;32.80;96.30
19522;DHT22;9905;52.126;5.596;2022-08-25T11:26:26;33.00;96.50
19522;DHT22;9905;52.126;5.596;2022-08-25T11:29:00;33.00;95.30
19522;DHT22;9905;52.126;5.596;2022-08-25T11:31:29;33.10;96.20
19522;DHT22;9905;52.126;5.596;2022-08-25T11:33:58;33.20;96.70
19522;DHT22;9905;52.126;5.596;2022-08-25T11:36:28;33.40;96.40
19522;DHT22;9905;52.126;5.596;2022-08-25T11:39:10;33.60;97.20
19522;DHT22;9905;52.126;5.596;2022-08-25T11:41:49;33.80;96.50
19522;DHT22;9905;52.126;5.596;2022-08-25T11:44:38;33.80;96.10
19522;DHT22;9905;52.126;5.596;2022-08-25T11:47:27;33.80;96.20
19522;DHT22;9905;52.126;5.596;2022-08-25T11:49:59;33.80;95.80
19522;DHT22;9905;52.126;5.596;2022-08-25T11:52:41;34.00;96.80
19522;DHT22;9905;52.126;5.596;2022-08-25T11:55:12;34.10;96.70
19522;DHT22;9905;52.126;5.596;2022-08-25T11:57:41;34.30;96.30
19522;DHT22;9905;52.126;5.596;2022-08-25T12:00:10;34.40;95.60
19522;DHT22;9905;52.126;5.596;2022-08-25T12:02:41;34.40;96.00
19522;DHT22;9905;52.126;5.596;2022-08-25T12:05:49;34.60;95.50
19522;DHT22;9905;52.126;5.596;2022-08-25T12:11:43;34.60;96.00
19522;DHT22;9905;52.126;5.596;2022-08-25T12:14:17;34.70;95.60
19522;DHT22;9905;52.126;5.596;2022-08-25T12:17:06;34.70;95.90
19522;DHT22;9905;52.126;5.596;2022-08-25T12:19:49;34.90;94.50
19522;DHT22;9905;52.126;5.596;2022-08-25T12:22:43;35.10;94.00
19522;DHT22;9905;52.126;5.596;2022-08-25T12:25:44;35.10;94.80
19522;DHT22;9905;52.126;5.596;2022-08-25T12:31:28;35.10;93.20
19522;DHT22;9905;52.126;5.596;2022-08-25T12:34:13;35.10;93.00
19522;DHT22;9905;52.126;5.596;2022-08-25T12:36:54;34.90;93.00
19522;DHT22;9905;52.126;5.596;2022-08-25T12:39:28;34.90;91.70
19522;DHT22;9905;52.126;5.596;2022-08-25T12:41:58;34.90;93.00
19522;DHT22;9905;52.126;5.596;2022-08-25T12:44:41;34.90;93.50
19522;DHT22;9905;52.126;5.596;2022-08-25T12:47:28;34.90;93.40
19522;DHT22;9905;52.126;5.596;2022-08-25T12:50:29;34.90;93.80
19522;DHT22;9905;52.126;5.596;2022-08-25T12:53:06;34.90;93.40
19522;DHT22;9905;52.126;5.596;2022-08-25T12:55:37;34.90;93.30
19522;DHT22;9905;52.126;5.596;2022-08-25T12:58:05;34.90;93.40
19522;DHT22;9905;52.126;5.596;2022-08-25T13:00:44;35.00;94.20
19522;DHT22;9905;52.126;5.596;2022-08-25T13:06:17;35.30;93.90
19522;DHT22;9905;52.126;5.596;2022-08-25T13:11:52;35.60;92.80
19522;DHT22;9905;52.126;5.596;2022-08-25T13:14:23;35.50;93.10
19522;DHT22;9905;52.126;5.596;2022-08-25T13:16:53;35.70;92.70
19522;DHT22;9905;52.126;5.596;2022-08-25T13:19:21;35.90;93.10
19522;DHT22;9905;52.126;5.596;2022-08-25T13:21:48;35.90;92.50
19522;DHT22;9905;52.126;5.596;2022-08-25T13:24:20;35.90;91.60
19522;DHT22;9905;52.126;5.596;2022-08-25T13:26:51;35.90;91.50
19522;DHT22;9905;52.126;5.596;2022-08-25T13:29:21;36.00;91.40
19522;DHT22;9905;52.126;5.596;2022-08-25T13:31:54;36.00;92.00
19522;DHT22;9905;52.126;5.596;2022-08-25T13:34:24;36.10;91.70
19522;DHT22;9905;52.126;5.596;2022-08-25T13:36:52;36.10;91.10
19522;DHT22;9905;52.126;5.596;2022-08-25T13:39:37;36.20;91.40
19522;DHT22;9905;52.126;5.596;2022-08-25T13:42:12;36.20;91.40
19522;DHT22;9905;52.126;5.596;2022-08-25T13:44:39;36.20;90.80
19522;DHT22;9905;52.126;5.596;2022-08-25T13:47:08;36.30;91.50
19522;DHT22;9905;52.126;5.596;2022-08-25T13:49:36;36.30;90.60
19522;DHT22;9905;52.126;5.596;2022-08-25T13:52:03;36.30;90.40
19522;DHT22;9905;52.126;5.596;2022-08-25T13:54:38;36.40;91.50
19522;DHT22;9905;52.126;5.596;2022-08-25T13:57:12;36.50;89.60
19522;DHT22;9905;52.126;5.596;2022-08-25T13:59:41;36.40;89.30
19522;DHT22;9905;52.126;5.596;2022-08-25T14:02:11;36.20;89.40
19522;DHT22;9905;52.126;5.596;2022-08-25T14:04:47;36.30;91.60
19522;DHT22;9905;52.126;5.596;2022-08-25T14:07:25;36.50;90.00
19522;DHT22;9905;52.126;5.596;2022-08-25T14:09:55;36.50;90.10
19522;DHT22;9905;52.126;5.596;2022-08-25T14:12:29;36.70;91.00
19522;DHT22;9905;52.126;5.596;2022-08-25T14:14:59;36.50;88.70
19522;DHT22;9905;52.126;5.596;2022-08-25T14:17:26;36.40;87.90
19522;DHT22;9905;52.126;5.596;2022-08-25T14:19:53;36.40;89.20
19522;DHT22;9905;52.126;5.596;2022-08-25T14:22:19;36.40;90.40
19522;DHT22;9905;52.126;5.596;2022-08-25T14:24:46;36.30;87.60
19522;DHT22;9905;52.126;5.596;2022-08-25T14:27:13;36.10;87.60
19522;DHT22;9905;52.126;5.596;2022-08-25T14:29:41;36.10;88.20
19522;DHT22;9905;52.126;5.596;2022-08-25T14:32:08;36.10;88.50
19522;DHT22;9905;52.126;5.596;2022-08-25T14:34:36;36.20;89.90
19522;DHT22;9905;52.126;5.596;2022-08-25T14:37:05;36.20;86.80
19522;DHT22;9905;52.126;5.596;2022-08-25T14:39:35;36.40;86.80
19522;DHT22;9905;52.126;5.596;2022-08-25T14:42:01;36.50;88.60
19522;DHT22;9905;52.126;5.596;2022-08-25T14:44:28;36.50;86.50
19522;DHT22;9905;52.126;5.596;2022-08-25T14:46:56;36.40;86.80
19522;DHT22;9905;52.126;5.596;2022-08-25T14:49:25;36.40;87.40
19522;DHT22;9905;52.126;5.596;2022-08-25T14:51:56;36.40;86.50
19522;DHT22;9905;52.126;5.596;2022-08-25T14:54:25;36.30;86.40
19522;DHT22;9905;52.126;5.596;2022-08-25T14:56:52;36.20;86.00
19522;DHT22;9905;52.126;5.596;2022-08-25T14:59:21;36.30;86.70
19522;DHT22;9905;52.126;5.596;2022-08-25T15:01:47;36.50;87.90
19522;DHT22;9905;52.126;5.596;2022-08-25T15:04:18;36.60;85.80
19522;DHT22;9905;52.126;5.596;2022-08-25T15:06:45;36.60;86.70
19522;DHT22;9905;52.126;5.596;2022-08-25T15:09:14;36.60;86.90
19522;DHT22;9905;52.126;5.596;2022-08-25T15:11:42;36.60;87.30
19522;DHT22;9905;52.126;5.596;2022-08-25T15:14:10;36.40;85.90
19522;DHT22;9905;52.126;5.596;2022-08-25T15:16:39;36.40;85.80
19522;DHT22;9905;52.126;5.596;2022-08-25T15:19:08;36.50;87.10
19522;DHT22;9905;52.126;5.596;2022-08-25T15:21:37;36.30;86.00
19522;DHT22;9905;52.126;5.596;2022-08-25T15:24:04;36.20;86.20
19522;DHT22;9905;52.126;5.596;2022-08-25T15:26:32;36.20;84.20
19522;DHT22;9905;52.126;5.596;2022-08-25T15:28:59;36.00;83.10
19522;DHT22;9905;52.126;5.596;2022-08-25T15:31:26;35.80;85.00
19522;DHT22;9905;52.126;5.596;2022-08-25T15:33:53;35.90;85.40
19522;DHT22;9905;52.126;5.596;2022-08-25T15:36:23;36.00;86.60
19522;DHT22;9905;52.126;5.596;2022-08-25T15:38:51;36.20;87.00
19522;DHT22;9905;52.126;5.596;2022-08-25T15:41:18;36.50;86.20
19522;DHT22;9905;52.126;5.596;2022-08-25T15:43:46;36.40;86.00
19522;DHT22;9905;52.126;5.596;2022-08-25T15:46:16;36.50;87.00
19522;DHT22;9905;52.126;5.596;2022-08-25T15:48:44;36.60;85.30
19522;DHT22;9905;52.126;5.596;2022-08-25T15:51:12;36.60;84.50
19522;DHT22;9905;52.126;5.596;2022-08-25T15:53:40;36.60;84.90
19522;DHT22;9905;52.126;5.596;2022-08-25T15:56:08;36.70;85.70
19522;DHT22;9905;52.126;5.596;2022-08-25T15:58:38;36.90;87.00
19522;DHT22;9905;52.126;5.596;2022-08-25T16:01:05;36.80;83.70
19522;DHT22;9905;52.126;5.596;2022-08-25T16:03:32;36.60;83.40
19522;DHT22;9905;52.126;5.596;2022-08-25T16:06:02;36.50;83.60
19522;DHT22;9905;52.126;5.596;2022-08-25T16:08:29;36.40;82.90
19522;DHT22;9905;52.126;5.596;2022-08-25T16:10:56;36.50;83.80
19522;DHT22;9905;52.126;5.596;2022-08-25T16:13:24;36.40;83.70
19522;DHT22;9905;52.126;5.596;2022-08-25T16:15:51;36.30;84.40
19522;DHT22;9905;52.126;5.596;2022-08-25T16:18:19;36.40;84.70
19522;DHT22;9905;52.126;5.596;2022-08-25T16:20:47;36.20;84.20